Time;durP1;ratioP1;P1;durP2;ratioP2;P2;SDS_P1;SDS_P2;PMS_P1;PMS_P2;Temp;Humidity;BMP_temperature;BMP_pressure;BME280_temperature;BME280_humidity;BME280_pressure;Samples;Min_cycle;Max_cycle;Signal;HPM_P1;HPM_P2
2022/09/25 00:00:30;;;;;;;13.52;8.57;;;11.10;99.90;;;;;;4986868;28;20077;-65
2022/09/25 00:02:56;;;;;;;16.15;9.77;;;11.00;99.90;;;;;;4987995;28;20034;-66
2022/09/25 00:05:21;;;;;;;17.42;10.55;;;11.00;99.90;;;;;;4970318;28;20030;-64
2022/09/25 00:07:47;;;;;;;15.65;9.68;;;11.00;99.90;;;;;;4988250;28;20030;-72
2022/09/25 00:10:13;;;;;;;28.13;10.45;;;11.00;99.90;;;;;;4988374;28;20026;-67
2022/09/25 00:12:38;;;;;;;56.47;9.98;;;11.00;99.90;;;;;;4988178;28;20064;-67
2022/09/25 00:15:04;;;;;;;61.58;10.15;;;10.90;99.90;;;;;;4985460;28;20105;-67
2022/09/25 00:17:30;;;;;;;16.77;9.65;;;10.90;99.90;;;;;;4987375;28;20026;-66
2022/09/25 00:19:56;;;;;;;170.10;11.63;;;10.90;99.90;;;;;;4989563;28;20070;-66
2022/09/25 00:22:26;;;;;;;15.25;9.68;;;10.90;99.90;;;;;;4990504;28;20486;-65
2022/09/25 00:24:53;;;;;;;18.13;10.77;;;10.80;99.90;;;;;;4985980;28;20707;-65
2022/09/25 00:27:19;;;;;;;57.65;10.88;;;10.90;99.90;;;;;;4989135;28;20121;-67
2022/09/25 00:29:46;;;;;;;17.35;10.18;;;10.90;99.90;;;;;;4985334;28;20074;-71
2022/09/25 00:32:12;;;;;;;15.50;9.90;;;10.90;99.90;;;;;;4989318;28;20034;-66
2022/09/25 00:34:38;;;;;;;18.00;10.73;;;10.90;99.90;;;;;;4983579;28;20030;-66
2022/09/25 00:37:04;;;;;;;42.83;12.00;;;10.90;99.90;;;;;;4986859;28;20041;-68
2022/09/25 00:39:31;;;;;;;36.35;12.52;;;10.90;99.90;;;;;;4988473;28;20022;-66
2022/09/25 00:41:57;;;;;;;34.00;13.43;;;11.00;99.90;;;;;;4986194;28;20045;-66
2022/09/25 00:44:44;;;;;;;25.00;12.73;;;11.10;99.90;;;;;;4987664;28;20038;-66
2022/09/25 00:47:13;;;;;;;43.33;12.00;;;11.10;99.90;;;;;;4987827;28;20041;-67
2022/09/25 00:49:39;;;;;;;20.10;11.27;;;11.10;99.90;;;;;;4988245;28;20034;-67
2022/09/25 00:52:07;;;;;;;15.75;10.02;;;11.10;99.90;;;;;;4960743;28;20050;-70
2022/09/25 00:54:43;;;;;;;26.40;10.35;;;11.10;99.90;;;;;;4985125;28;20059;-68
2022/09/25 00:57:14;;;;;;;22.80;10.43;;;11.10;99.90;;;;;;4987283;28;20056;-68
2022/09/25 00:59:43;;;;;;;76.88;10.02;;;11.10;99.90;;;;;;4988124;28;20379;-67
2022/09/25 01:02:14;;;;;;;17.15;9.52;;;11.10;99.90;;;;;;4986231;28;20513;-67
2022/09/25 01:04:44;;;;;;;389.85;16.92;;;11.20;99.90;;;;;;4987532;28;20781;-66
2022/09/25 01:07:11;;;;;;;268.45;14.20;;;11.10;99.90;;;;;;4978357;28;20034;-66
2022/09/25 01:09:37;;;;;;;123.32;10.80;;;11.10;99.90;;;;;;4986778;28;20463;-68
2022/09/25 01:12:03;;;;;;;127.95;9.82;;;11.00;99.90;;;;;;4984461;28;20045;-66
2022/09/25 01:14:32;;;;;;;109.97;10.65;;;11.10;99.90;;;;;;4988009;28;20042;-66
2022/09/25 01:17:12;;;;;;;22.05;9.63;;;11.10;99.90;;;;;;4987576;28;20038;-69
2022/09/25 01:20:13;;;;;;;57.30;11.57;;;11.10;99.90;;;;;;4955728;28;20058;-71
2022/09/25 01:22:54;;;;;;;69.88;11.50;;;11.10;99.90;;;;;;4985716;28;20034;-67
2022/09/25 01:25:57;;;;;;;21.08;9.27;;;11.10;99.90;;;;;;4987154;28;20069;-68
2022/09/25 01:28:53;;;;;;;25.85;10.35;;;11.10;99.90;;;;;;4978844;28;20038;-66
2022/09/25 01:31:37;;;;;;;25.95;11.85;;;11.10;99.90;;;;;;4984995;28;20113;-67
2022/09/25 01:34:13;;;;;;;29.67;12.68;;;11.10;99.90;;;;;;4982463;28;20310;-69
2022/09/25 01:36:47;;;;;;;72.30;12.35;;;11.10;99.90;;;;;;4969088;28;20383;-68
2022/09/25 01:39:16;;;;;;;96.43;13.07;;;11.10;99.90;;;;;;4986274;28;20030;-69
2022/09/25 01:42:03;;;;;;;118.65;14.65;;;11.10;99.90;;;;;;4986223;28;20045;-66
2022/09/25 01:44:30;;;;;;;132.85;14.00;;;11.10;99.90;;;;;;4986025;28;20030;-71
2022/09/25 01:47:05;;;;;;;209.07;15.20;;;11.00;99.90;;;;;;4985814;28;20037;-65
2022/09/25 01:49:36;;;;;;;225.45;15.27;;;11.00;99.90;;;;;;4985248;28;20459;-65
2022/09/25 01:52:06;;;;;;;200.63;15.50;;;10.90;99.90;;;;;;4985824;28;20074;-65
2022/09/25 01:54:43;;;;;;;243.52;15.48;;;10.80;99.90;;;;;;4985650;28;20074;-65
2022/09/25 01:57:24;;;;;;;211.98;15.38;;;10.80;99.90;;;;;;4960917;28;20041;-68
2022/09/25 02:00:04;;;;;;;116.55;13.80;;;10.70;99.90;;;;;;4987984;28;20036;-73
2022/09/25 02:02:36;;;;;;;21.40;12.70;;;10.70;99.90;;;;;;4986407;28;20105;-66
2022/09/25 02:05:04;;;;;;;23.73;12.90;;;10.70;99.90;;;;;;4969251;28;20434;-66
2022/09/25 02:07:35;;;;;;;21.13;11.77;;;10.80;99.90;;;;;;4987513;28;20113;-67
2022/09/25 02:10:11;;;;;;;20.33;12.32;;;10.80;99.90;;;;;;4978874;28;20042;-67
2022/09/25 02:12:42;;;;;;;29.27;13.00;;;10.90;99.90;;;;;;4983628;28;20045;-67
2022/09/25 02:15:17;;;;;;;52.63;13.18;;;10.90;99.90;;;;;;4983078;28;20439;-70
2022/09/25 02:20:41;;;;;;;29.98;12.98;;;11.00;99.90;;;;;;4987145;28;20399;-65
2022/09/25 02:23:24;;;;;;;25.67;13.80;;;11.10;99.90;;;;;;4967770;28;20045;-73
2022/09/25 02:25:59;;;;;;;22.73;12.77;;;11.10;99.90;;;;;;4985019;28;20364;-67
2022/09/25 02:28:24;;;;;;;26.50;13.82;;;11.10;99.90;;;;;;4988675;28;20056;-66
2022/09/25 02:30:56;;;;;;;26.92;13.63;;;11.10;99.90;;;;;;4987531;28;20026;-66
2022/09/25 02:33:23;;;;;;;24.90;13.57;;;11.10;99.90;;;;;;4991771;28;20034;-66
2022/09/25 02:35:48;;;;;;;36.63;13.05;;;11.10;99.90;;;;;;4989262;28;20467;-72
2022/09/25 02:38:15;;;;;;;25.60;13.70;;;11.00;99.90;;;;;;4990991;28;20030;-66
2022/09/25 02:40:51;;;;;;;31.20;13.98;;;11.00;99.90;;;;;;4989592;28;20034;-66
2022/09/25 02:43:33;;;;;;;22.95;13.38;;;11.00;99.90;;;;;;4990137;28;20033;-67
2022/09/25 02:46:21;;;;;;;23.88;13.10;;;11.00;99.90;;;;;;4985765;28;20058;-69
2022/09/25 02:48:55;;;;;;;25.85;13.75;;;11.10;99.90;;;;;;4989842;28;20027;-67
2022/09/25 02:51:31;;;;;;;25.80;13.80;;;11.10;99.90;;;;;;4987536;28;20455;-66
2022/09/25 02:54:23;;;;;;;35.58;14.13;;;11.20;99.90;;;;;;4987339;28;20053;-74
2022/09/25 02:56:55;;;;;;;26.27;13.27;;;11.20;99.90;;;;;;4986153;28;20402;-66
2022/09/25 02:59:27;;;;;;;184.88;17.48;;;11.20;99.90;;;;;;4988175;28;20041;-64
2022/09/25 03:01:55;;;;;;;33.65;13.23;;;11.20;99.90;;;;;;4986137;28;20030;-72
2022/09/25 03:04:23;;;;;;;94.85;14.32;;;11.10;99.90;;;;;;4987214;28;20037;-66
2022/09/25 03:06:50;;;;;;;395.65;20.80;;;11.10;99.90;;;;;;4989614;28;20133;-68
2022/09/25 03:09:17;;;;;;;83.78;13.95;;;11.10;99.90;;;;;;4986747;28;20119;-66
2022/09/25 03:11:43;;;;;;;27.60;14.02;;;11.20;99.90;;;;;;4990389;28;20465;-66
2022/09/25 03:14:09;;;;;;;311.27;18.55;;;11.20;99.90;;;;;;4987119;28;20030;-68
2022/09/25 03:16:46;;;;;;;55.22;13.50;;;11.20;99.90;;;;;;4989390;28;20029;-66
2022/09/25 03:19:12;;;;;;;26.20;13.20;;;11.20;99.90;;;;;;4986822;28;20356;-65
2022/09/25 03:21:38;;;;;;;31.30;15.50;;;11.30;99.90;;;;;;4987229;28;20386;-69
2022/09/25 03:24:04;;;;;;;33.67;15.70;;;11.30;99.90;;;;;;4989989;28;20044;-66
2022/09/25 03:26:30;;;;;;;32.97;15.30;;;11.30;99.90;;;;;;4988932;28;20033;-65
2022/09/25 03:29:01;;;;;;;36.25;16.40;;;11.30;99.90;;;;;;4991030;28;20030;-74
2022/09/25 03:31:30;;;;;;;31.65;16.17;;;11.30;99.90;;;;;;4991069;28;20038;-65
2022/09/25 03:33:56;;;;;;;32.30;15.52;;;11.30;99.90;;;;;;4989342;28;20470;-73
2022/09/25 03:36:23;;;;;;;34.17;16.30;;;11.30;99.90;;;;;;4989932;28;20026;-66
2022/09/25 03:38:51;;;;;;;32.28;15.15;;;11.30;99.90;;;;;;4989264;28;20042;-67
2022/09/25 03:41:20;;;;;;;37.53;16.05;;;11.30;99.90;;;;;;4970871;28;20685;-66
2022/09/25 03:43:48;;;;;;;63.85;17.90;;;11.40;99.90;;;;;;4995030;28;20391;-65
2022/09/25 03:46:14;;;;;;;100.00;18.42;;;11.40;99.90;;;;;;4990318;28;20047;-68
2022/09/25 03:48:40;;;;;;;147.65;18.65;;;11.40;99.90;;;;;;4989109;28;20026;-65
2022/09/25 03:51:07;;;;;;;342.92;21.40;;;11.40;99.90;;;;;;4971653;28;20045;-69
2022/09/25 03:53:34;;;;;;;645.00;27.77;;;11.40;99.90;;;;;;4988252;28;20715;-67
2022/09/25 03:56:02;;;;;;;1099.50;37.58;;;11.30;99.90;;;;;;4988797;28;20558;-73
2022/09/25 03:58:28;;;;;;;258.30;19.40;;;11.30;99.90;;;;;;4988885;28;20378;-67
2022/09/25 04:00:57;;;;;;;475.65;21.73;;;11.20;99.90;;;;;;4987769;28;20058;-66
2022/09/25 04:03:26;;;;;;;212.93;17.63;;;11.20;99.90;;;;;;4987502;28;20045;-65
2022/09/25 04:05:52;;;;;;;206.15;18.05;;;11.20;99.90;;;;;;4988343;28;20030;-66
2022/09/25 04:08:18;;;;;;;454.85;26.70;;;11.30;99.90;;;;;;4988355;28;20033;-67
2022/09/25 04:10:43;;;;;;;223.27;20.95;;;11.30;99.90;;;;;;4990433;28;20030;-69
2022/09/25 04:13:11;;;;;;;277.52;20.40;;;11.30;99.90;;;;;;4970791;28;20506;-69
2022/09/25 04:15:38;;;;;;;312.85;21.50;;;11.30;99.90;;;;;;4976015;28;20438;-67
2022/09/25 04:18:05;;;;;;;381.23;23.27;;;11.30;99.90;;;;;;4989246;28;20058;-73
2022/09/25 04:20:31;;;;;;;286.20;21.70;;;11.30;99.90;;;;;;4987301;28;20038;-65
2022/09/25 04:22:56;;;;;;;208.23;20.05;;;11.30;99.90;;;;;;4990703;28;20034;-65
2022/09/25 04:25:24;;;;;;;332.30;21.55;;;11.30;99.90;;;;;;4987192;28;20037;-66
2022/09/25 04:27:52;;;;;;;437.48;24.75;;;11.30;99.90;;;;;;4989871;28;20469;-65
2022/09/25 04:30:18;;;;;;;285.05;21.33;;;11.30;99.90;;;;;;4987440;28;20046;-67
2022/09/25 04:35:28;;;;;;;182.60;19.17;;;11.20;99.90;;;;;;4987564;28;20061;-68
2022/09/25 04:37:53;;;;;;;57.85;16.77;;;11.30;99.90;;;;;;4990504;28;20383;-67
2022/09/25 04:40:19;;;;;;;53.53;17.60;;;11.30;99.90;;;;;;4987632;28;20046;-66
2022/09/25 04:42:45;;;;;;;43.30;16.85;;;11.30;99.90;;;;;;4990011;28;20466;-65
2022/09/25 04:45:10;;;;;;;52.22;18.30;;;11.40;99.90;;;;;;4982329;28;20442;-64
2022/09/25 04:47:36;;;;;;;116.95;20.50;;;11.50;99.90;;;;;;4980890;28;20034;-65
2022/09/25 04:50:02;;;;;;;90.20;18.08;;;11.40;99.90;;;;;;4986863;28;20475;-74
2022/09/25 04:52:30;;;;;;;109.03;19.45;;;11.40;99.90;;;;;;4980737;28;20053;-64
2022/09/25 04:54:56;;;;;;;144.23;19.33;;;11.50;99.90;;;;;;4988088;28;20054;-69
2022/09/25 04:57:22;;;;;;;126.25;18.85;;;11.40;99.90;;;;;;4981483;28;20033;-64
2022/09/25 04:59:49;;;;;;;129.35;19.05;;;11.40;99.90;;;;;;4989064;28;20108;-66
2022/09/25 05:02:15;;;;;;;175.10;19.88;;;11.40;99.90;;;;;;4986664;28;20034;-66
2022/09/25 05:04:41;;;;;;;112.03;19.75;;;11.40;99.90;;;;;;4983601;28;20514;-66
2022/09/25 05:07:06;;;;;;;47.28;18.60;;;11.40;99.90;;;;;;4983822;28;20038;-72
2022/09/25 05:09:32;;;;;;;62.08;18.02;;;11.40;99.90;;;;;;4989600;28;20053;-65
2022/09/25 05:11:58;;;;;;;64.55;19.38;;;11.40;99.90;;;;;;4989644;28;20065;-71
2022/09/25 05:14:24;;;;;;;541.88;28.40;;;11.40;99.90;;;;;;4987667;28;20277;-68
2022/09/25 05:16:50;;;;;;;1494.05;48.92;;;11.40;99.90;;;;;;4989501;28;20442;-67
2022/09/25 05:19:16;;;;;;;588.13;28.50;;;11.30;99.90;;;;;;4973819;28;20038;-66
2022/09/25 05:21:42;;;;;;;439.00;26.05;;;11.30;99.90;;;;;;4988309;28;20092;-65
2022/09/25 05:24:08;;;;;;;672.20;34.13;;;11.30;99.90;;;;;;4986984;28;20740;-67
2022/09/25 05:26:36;;;;;;;49.70;18.25;;;11.30;99.90;;;;;;4990300;28;20037;-66
2022/09/25 05:29:02;;;;;;;39.97;17.85;;;11.30;99.90;;;;;;4987965;28;20038;-72
2022/09/25 05:31:28;;;;;;;41.00;18.48;;;11.40;99.90;;;;;;4986853;28;20070;-67
2022/09/25 05:33:53;;;;;;;39.53;17.83;;;11.30;99.90;;;;;;4989617;28;20065;-69
2022/09/25 05:36:19;;;;;;;40.95;17.70;;;11.40;99.90;;;;;;4986198;28;20030;-66
2022/09/25 05:38:45;;;;;;;45.00;18.30;;;11.40;99.90;;;;;;4989601;28;20026;-65
2022/09/25 05:41:12;;;;;;;40.22;17.55;;;11.40;99.90;;;;;;4987301;28;20515;-66
2022/09/25 05:43:40;;;;;;;41.63;17.52;;;11.40;99.90;;;;;;4987421;28;20038;-69
2022/09/25 05:46:06;;;;;;;44.30;18.58;;;11.50;99.90;;;;;;4985041;28;20034;-73
2022/09/25 05:48:32;;;;;;;41.30;17.85;;;11.50;99.90;;;;;;4982293;28;20026;-66
2022/09/25 05:50:58;;;;;;;41.63;17.65;;;11.60;99.90;;;;;;4986923;28;20384;-67
2022/09/25 05:53:24;;;;;;;40.30;17.85;;;11.60;99.90;;;;;;4987687;28;20130;-69
2022/09/25 05:55:56;;;;;;;38.30;17.45;;;11.60;99.90;;;;;;4988606;28;20038;-67
2022/09/25 05:58:22;;;;;;;39.65;17.80;;;11.70;99.90;;;;;;4989902;28;20105;-65
2022/09/25 06:00:49;;;;;;;38.10;16.98;;;11.70;99.90;;;;;;4987798;28;20153;-67
2022/09/25 06:03:15;;;;;;;39.95;17.38;;;11.70;99.90;;;;;;4976801;28;20029;-66
2022/09/25 06:05:41;;;;;;;37.53;17.63;;;11.70;99.90;;;;;;4998433;28;20426;-66
2022/09/25 06:08:07;;;;;;;34.85;16.40;;;11.70;99.90;;;;;;4992101;28;20053;-71
2022/09/25 06:10:33;;;;;;;38.60;18.02;;;11.80;99.90;;;;;;4993095;28;20026;-67
2022/09/25 06:13:03;;;;;;;35.38;16.58;;;11.80;99.90;;;;;;4991697;28;20526;-67
2022/09/25 06:15:36;;;;;;;54.35;18.17;;;11.80;99.90;;;;;;4992032;28;20434;-68
2022/09/25 06:18:03;;;;;;;155.18;19.10;;;11.80;99.90;;;;;;4992077;28;20106;-66
2022/09/25 06:20:29;;;;;;;35.70;16.40;;;11.70;99.90;;;;;;4991524;28;20129;-65
2022/09/25 06:22:56;;;;;;;41.35;18.35;;;11.70;99.90;;;;;;4992398;28;20477;-66
2022/09/25 06:25:25;;;;;;;42.30;18.88;;;11.70;99.90;;;;;;4991598;28;20045;-66
2022/09/25 06:27:52;;;;;;;34.50;17.42;;;11.80;99.90;;;;;;4994382;28;20026;-66
2022/09/25 06:30:19;;;;;;;41.40;19.77;;;11.80;99.90;;;;;;4992484;28;20034;-69
2022/09/25 06:32:45;;;;;;;48.63;21.05;;;11.80;99.90;;;;;;4991835;28;20379;-66
2022/09/25 06:35:10;;;;;;;43.70;20.35;;;11.80;99.90;;;;;;4973727;28;20039;-67
2022/09/25 06:37:36;;;;;;;43.83;19.00;;;11.80;99.90;;;;;;4990566;28;20022;-73
2022/09/25 06:40:02;;;;;;;42.80;19.77;;;11.80;99.90;;;;;;4993159;28;20039;-66
2022/09/25 06:42:27;;;;;;;46.75;19.27;;;11.80;99.90;;;;;;4994096;28;20048;-69
2022/09/25 06:44:53;;;;;;;44.50;19.17;;;11.80;99.90;;;;;;4992282;28;20065;-67
2022/09/25 06:47:18;;;;;;;42.47;20.00;;;11.80;99.90;;;;;;4992508;28;20061;-68
2022/09/25 06:49:45;;;;;;;43.88;20.30;;;11.80;99.90;;;;;;5012531;28;20036;-67
2022/09/25 06:52:11;;;;;;;42.70;18.70;;;11.90;99.90;;;;;;4973875;28;20049;-71
2022/09/25 06:54:36;;;;;;;45.08;20.77;;;11.90;99.90;;;;;;4991603;28;20050;-66
2022/09/25 06:57:02;;;;;;;45.30;19.77;;;11.90;99.90;;;;;;4991882;28;20097;-66
2022/09/25 06:59:28;;;;;;;45.83;20.08;;;12.00;99.90;;;;;;4991934;28;20026;-67
2022/09/25 07:01:53;;;;;;;46.47;20.30;;;12.00;99.90;;;;;;4991288;28;20472;-69
2022/09/25 07:04:20;;;;;;;46.58;19.48;;;12.00;99.90;;;;;;4991270;28;20085;-67
2022/09/25 07:06:46;;;;;;;43.45;19.33;;;12.00;99.90;;;;;;4992684;28;20023;-64
2022/09/25 07:09:12;;;;;;;45.45;19.95;;;12.00;99.90;;;;;;4991406;28;20169;-66
2022/09/25 07:11:42;;;;;;;42.78;18.50;;;12.10;99.90;;;;;;4991806;28;20761;-64
2022/09/25 07:14:09;;;;;;;46.13;19.30;;;12.10;99.90;;;;;;4992375;28;20034;-73
2022/09/25 07:16:34;;;;;;;43.92;18.73;;;12.10;99.90;;;;;;4994367;28;20038;-66
2022/09/25 07:19:02;;;;;;;38.58;18.52;;;12.10;99.90;;;;;;5007917;28;21044;-66
2022/09/25 07:21:30;;;;;;;40.65;18.92;;;12.10;99.90;;;;;;4989187;28;20029;-65
2022/09/25 07:23:57;;;;;;;38.13;17.77;;;12.10;99.90;;;;;;4987524;28;20117;-68
2022/09/25 07:26:28;;;;;;;41.80;18.98;;;12.20;99.90;;;;;;4988405;28;20034;-68
2022/09/25 07:28:57;;;;;;;40.65;19.35;;;12.10;99.90;;;;;;4987106;28;20038;-71
2022/09/25 07:31:26;;;;;;;41.30;19.83;;;12.20;99.90;;;;;;4983916;28;20045;-69
2022/09/25 07:33:51;;;;;;;44.28;19.75;;;12.20;99.90;;;;;;4977458;28;20022;-72
2022/09/25 07:36:18;;;;;;;37.88;18.00;;;12.30;99.90;;;;;;4990506;28;20026;-66
2022/09/25 07:38:49;;;;;;;42.65;18.73;;;12.30;99.90;;;;;;4990627;28;20117;-71
2022/09/25 07:41:15;;;;;;;35.22;18.02;;;12.30;99.90;;;;;;4965976;28;20065;-68
2022/09/25 07:43:42;;;;;;;39.00;18.38;;;12.40;99.90;;;;;;4973686;28;20034;-66
2022/09/25 07:46:08;;;;;;;39.50;18.98;;;12.30;99.90;;;;;;4991800;28;20022;-66
2022/09/25 07:48:34;;;;;;;34.80;17.30;;;12.40;99.90;;;;;;4983852;28;20023;-67
2022/09/25 07:51:01;;;;;;;40.03;18.92;;;12.40;99.90;;;;;;4967326;28;20034;-64
2022/09/25 07:53:26;;;;;;;35.42;17.90;;;12.40;99.90;;;;;;4990324;28;20491;-63
2022/09/25 07:55:56;;;;;;;35.88;18.20;;;12.50;99.90;;;;;;4991784;28;20148;-64
2022/09/25 07:58:21;;;;;;;32.17;17.02;;;12.50;99.90;;;;;;4989859;28;20359;-64
2022/09/25 08:00:47;;;;;;;46.38;17.25;;;12.60;99.90;;;;;;4972210;28;20034;-64
2022/09/25 08:03:13;;;;;;;37.30;18.23;;;12.60;99.90;;;;;;4985132;28;20478;-69
2022/09/25 08:05:39;;;;;;;36.42;17.17;;;12.60;99.90;;;;;;4991352;28;20034;-64
2022/09/25 08:08:04;;;;;;;36.70;17.65;;;12.50;99.90;;;;;;4990415;28;20031;-65
2022/09/25 08:10:31;;;;;;;39.83;18.38;;;12.50;99.90;;;;;;4988455;28;20026;-64
2022/09/25 08:12:56;;;;;;;38.20;18.20;;;12.50;99.90;;;;;;4991211;28;20089;-65
2022/09/25 08:15:22;;;;;;;38.20;16.65;;;12.50;99.90;;;;;;4973056;28;20030;-64
2022/09/25 08:17:48;;;;;;;36.55;17.08;;;12.40;99.90;;;;;;4991380;28;20518;-64
2022/09/25 08:20:13;;;;;;;43.63;18.00;;;12.40;99.90;;;;;;4990456;28;20699;-70
2022/09/25 08:22:39;;;;;;;39.15;18.30;;;12.40;99.90;;;;;;4973203;28;20529;-64
2022/09/25 08:25:05;;;;;;;42.85;18.30;;;12.40;99.90;;;;;;4989750;28;20034;-65
2022/09/25 08:27:31;;;;;;;40.63;18.38;;;12.40;99.90;;;;;;4989954;28;20117;-63
2022/09/25 08:29:57;;;;;;;42.45;18.15;;;12.50;99.90;;;;;;4991088;28;20847;-63
2022/09/25 08:32:23;;;;;;;46.70;19.67;;;12.40;99.90;;;;;;4990024;28;20791;-65
2022/09/25 08:34:49;;;;;;;42.83;19.50;;;12.40;99.90;;;;;;4991042;28;20069;-65
2022/09/25 08:37:16;;;;;;;39.25;17.95;;;12.40;99.90;;;;;;4990441;28;20383;-68
2022/09/25 08:39:41;;;;;;;42.33;19.08;;;12.50;99.90;;;;;;4990071;28;20105;-63
2022/09/25 08:42:18;;;;;;;41.25;19.27;;;12.60;99.90;;;;;;4990963;28;20118;-65
2022/09/25 08:49:00;;;;;;;42.13;18.85;;;12.70;99.90;;;;;;4990718;28;20386;-66
2022/09/25 08:50:22;;;;;;;36.88;17.20;;;12.90;99.90;;;;;;4989865;28;20509;-66
2022/09/25 08:52:53;;;;;;;39.10;17.92;;;12.90;99.90;;;;;;4990019;28;20042;-65
2022/09/25 08:58:25;;;;;;;36.05;17.70;;;13.00;99.90;;;;;;4989720;28;20045;-70
2022/09/25 09:01:05;;;;;;;41.28;17.88;;;13.00;99.90;;;;;;4990559;28;20030;-63
2022/09/25 09:03:32;;;;;;;35.00;17.27;;;13.00;99.90;;;;;;4989848;28;20475;-63
2022/09/25 09:06:13;;;;;;;31.50;14.75;;;13.00;99.90;;;;;;4990490;28;20474;-66
2022/09/25 09:08:42;;;;;;;31.17;15.82;;;13.10;99.90;;;;;;4989169;28;20034;-65
2022/09/25 09:11:16;;;;;;;30.98;14.80;;;13.10;99.90;;;;;;4990744;28;20422;-63
2022/09/25 09:13:51;;;;;;;28.60;14.35;;;13.10;99.90;;;;;;4990096;28;20031;-65
2022/09/25 09:16:39;;;;;;;24.17;11.85;;;13.30;99.90;;;;;;4990299;28;20034;-69
2022/09/25 09:19:06;;;;;;;22.25;11.98;;;13.40;99.90;;;;;;4972734;28;20030;-64
2022/09/25 09:21:36;;;;;;;28.67;12.88;;;13.40;99.90;;;;;;4989551;28;20109;-64
2022/09/25 09:24:21;;;;;;;25.60;13.20;;;13.50;99.90;;;;;;4989035;28;20034;-64
2022/09/25 09:27:24;;;;;;;27.88;13.85;;;13.60;99.90;;;;;;4978390;28;20446;-64
2022/09/25 09:29:56;;;;;;;26.65;13.40;;;13.50;99.90;;;;;;4986629;28;20529;-64
2022/09/25 09:32:40;;;;;;;24.15;12.52;;;13.40;99.90;;;;;;4985580;28;20472;-65
2022/09/25 09:35:05;;;;;;;26.98;13.75;;;13.30;99.90;;;;;;4990330;28;20030;-65
2022/09/25 09:37:53;;;;;;;29.70;13.77;;;13.30;99.90;;;;;;4988984;28;20037;-67
2022/09/25 09:40:37;;;;;;;24.48;12.48;;;13.50;99.90;;;;;;4987084;28;20065;-72
2022/09/25 09:43:39;;;;;;;23.13;12.65;;;13.60;99.90;;;;;;4987361;28;20034;-66
2022/09/25 09:46:20;;;;;;;25.35;12.75;;;13.70;99.90;;;;;;4971751;28;20038;-65
2022/09/25 09:49:24;;;;;;;24.20;12.50;;;13.70;99.90;;;;;;4988156;28;20054;-65
2022/09/25 09:52:00;;;;;;;19.75;10.77;;;13.80;99.90;;;;;;4972331;28;20042;-68
2022/09/25 09:54:41;;;;;;;20.88;9.98;;;13.80;99.90;;;;;;4987499;28;20053;-66
2022/09/25 09:57:34;;;;;;;18.02;10.40;;;13.70;99.90;;;;;;5006265;28;20034;-70
2022/09/25 10:00:12;;;;;;;21.48;10.23;;;13.70;99.90;;;;;;4981617;28;20039;-65
2022/09/25 10:02:45;;;;;;;20.90;11.32;;;13.70;99.90;;;;;;4976639;28;20034;-68
2022/09/25 10:05:35;;;;;;;21.05;10.95;;;13.70;99.90;;;;;;4988271;28;20041;-66
2022/09/25 10:08:01;;;;;;;17.73;9.90;;;13.80;99.90;;;;;;4989078;28;20039;-65
2022/09/25 10:10:36;;;;;;;18.67;9.95;;;13.80;99.90;;;;;;4975342;28;20030;-65
2022/09/25 10:13:05;;;;;;;20.08;10.48;;;13.80;99.90;;;;;;4987832;28;20447;-66
2022/09/25 10:15:44;;;;;;;19.27;10.30;;;13.80;99.90;;;;;;4988154;28;20038;-66
2022/09/25 10:18:12;;;;;;;19.13;10.52;;;13.80;99.90;;;;;;4989854;28;20033;-64
2022/09/25 10:20:55;;;;;;;20.73;11.07;;;13.60;99.90;;;;;;4989245;28;20113;-66
2022/09/25 10:23:27;;;;;;;20.25;9.95;;;13.60;99.90;;;;;;4988995;28;20105;-70
2022/09/25 10:25:53;;;;;;;19.25;10.50;;;13.60;99.90;;;;;;4990142;28;20509;-66
2022/09/25 10:28:28;;;;;;;17.80;9.73;;;13.60;99.90;;;;;;4988739;28;20030;-72
2022/09/25 10:30:55;;;;;;;18.30;9.70;;;13.60;99.90;;;;;;4989865;28;20030;-67
2022/09/25 10:33:23;;;;;;;16.65;9.45;;;13.60;99.90;;;;;;4986646;28;20066;-68
2022/09/25 10:35:53;;;;;;;15.93;9.48;;;13.60;99.90;;;;;;4972181;28;20038;-66
2022/09/25 10:38:31;;;;;;;21.13;9.13;;;13.70;99.90;;;;;;4989724;28;20141;-67
2022/09/25 10:41:03;;;;;;;16.70;9.63;;;13.60;99.90;;;;;;4989610;28;20498;-65
2022/09/25 10:43:29;;;;;;;18.85;9.75;;;13.60;99.90;;;;;;4988878;28;20057;-66
2022/09/25 10:46:08;;;;;;;16.42;9.15;;;13.60;99.90;;;;;;4991452;28;20105;-64
2022/09/25 10:51:21;;;;;;;15.73;8.80;;;13.80;99.90;;;;;;4992947;28;20034;-72
2022/09/25 10:54:11;;;;;;;17.75;9.35;;;13.70;99.90;;;;;;4991985;28;20129;-65
2022/09/25 10:56:38;;;;;;;18.73;9.80;;;13.70;99.90;;;;;;4991166;28;20086;-67
2022/09/25 10:59:18;;;;;;;18.48;10.10;;;13.60;99.90;;;;;;4975402;28;20034;-66
2022/09/25 11:01:47;;;;;;;19.70;9.40;;;13.70;99.90;;;;;;4991271;28;20271;-67
2022/09/25 11:04:21;;;;;;;16.85;9.35;;;13.70;99.90;;;;;;4992519;28;20038;-66
2022/09/25 11:06:53;;;;;;;16.17;9.23;;;13.70;99.90;;;;;;4992219;28;20035;-65
2022/09/25 11:09:22;;;;;;;16.75;8.73;;;13.70;99.90;;;;;;4992627;28;20133;-68
2022/09/25 11:11:51;;;;;;;18.63;9.20;;;13.80;99.90;;;;;;4992067;28;20120;-64
2022/09/25 11:14:27;;;;;;;16.23;9.65;;;13.80;99.90;;;;;;4992584;28;20026;-64
2022/09/25 11:16:58;;;;;;;17.63;10.07;;;13.70;99.90;;;;;;4991048;28;20030;-64
2022/09/25 11:19:30;;;;;;;17.17;9.30;;;13.70;99.90;;;;;;4992226;28;20041;-68
2022/09/25 11:22:03;;;;;;;17.83;9.90;;;13.60;99.90;;;;;;4990781;28;20041;-63
2022/09/25 11:24:41;;;;;;;21.70;9.77;;;13.60;99.90;;;;;;4991573;28;20387;-66
2022/09/25 11:27:15;;;;;;;17.38;10.40;;;13.60;99.90;;;;;;4989171;28;20526;-68
2022/09/25 11:29:53;;;;;;;18.67;10.50;;;13.80;99.90;;;;;;4989690;28;20096;-64
2022/09/25 11:32:35;;;;;;;17.40;9.63;;;14.00;99.90;;;;;;4991788;28;20038;-66
2022/09/25 11:35:10;;;;;;;23.95;10.55;;;14.10;99.90;;;;;;4986625;28;20038;-64
2022/09/25 11:37:42;;;;;;;19.60;10.77;;;14.00;99.90;;;;;;4989646;28;20030;-66
2022/09/25 11:43:15;;;;;;;21.88;11.40;;;14.00;99.90;;;;;;4987508;28;20036;-64
2022/09/25 11:45:47;;;;;;;21.40;11.75;;;14.10;99.90;;;;;;4987925;28;20031;-67
2022/09/25 11:48:33;;;;;;;20.80;10.85;;;14.10;99.90;;;;;;4990447;28;20026;-64
2022/09/25 11:51:06;;;;;;;21.40;12.05;;;14.10;99.90;;;;;;4989633;28;20042;-68
2022/09/25 11:53:51;;;;;;;24.02;13.45;;;14.00;99.90;;;;;;4987049;28;20384;-65
2022/09/25 11:57:00;;;;;;;23.33;12.50;;;14.00;99.90;;;;;;4989768;28;20045;-64
2022/09/25 11:59:47;;;;;;;25.27;12.13;;;13.90;99.90;;;;;;4978529;28;20054;-70
2022/09/25 12:02:39;;;;;;;24.52;12.45;;;13.80;99.90;;;;;;4986133;28;20037;-65
2022/09/25 12:05:17;;;;;;;24.48;12.85;;;13.90;99.90;;;;;;4989194;28;20043;-65
2022/09/25 12:08:16;;;;;;;22.52;12.40;;;13.90;99.90;;;;;;4989954;28;20034;-66
2022/09/25 12:11:18;;;;;;;25.92;12.60;;;14.00;99.90;;;;;;4938072;28;20043;-65
2022/09/25 12:13:48;;;;;;;24.75;13.25;;;14.10;99.90;;;;;;4984247;28;20114;-66
2022/09/25 12:16:23;;;;;;;24.05;13.35;;;14.10;99.90;;;;;;4988740;28;20042;-64
2022/09/25 12:19:34;;;;;;;24.58;12.68;;;14.00;99.90;;;;;;4989256;28;20038;-66
2022/09/25 12:22:11;;;;;;;26.42;13.68;;;13.80;99.90;;;;;;4967091;28;20116;-64
2022/09/25 12:24:59;;;;;;;30.50;14.02;;;13.70;99.90;;;;;;4964706;28;20031;-64
2022/09/25 12:27:50;;;;;;;29.35;14.93;;;13.60;99.90;;;;;;4985864;28;20114;-64
2022/09/25 12:30:29;;;;;;;29.35;14.60;;;13.40;99.90;;;;;;4978157;28;20400;-65
2022/09/25 12:33:04;;;;;;;27.80;14.48;;;13.40;99.90;;;;;;4990821;28;20125;-64
2022/09/25 12:35:46;;;;;;;27.85;14.75;;;13.40;99.90;;;;;;4989190;28;20395;-69
2022/09/25 12:38:23;;;;;;;27.23;14.32;;;13.40;99.90;;;;;;4991141;28;20041;-65
2022/09/25 12:40:56;;;;;;;28.17;13.65;;;13.50;99.90;;;;;;4988087;28;20030;-65
2022/09/25 12:43:52;;;;;;;29.73;15.57;;;13.60;99.90;;;;;;4990363;28;20041;-67
2022/09/25 12:46:43;;;;;;;30.85;15.18;;;13.70;99.90;;;;;;4990660;28;20057;-66
2022/09/25 12:49:11;;;;;;;;;;;13.80;99.90;;;;;;4988718;28;20398;-67
2022/09/25 12:51:49;;;;;;;32.08;14.45;;;13.90;99.90;;;;;;4987999;28;20401;-66
2022/09/25 12:54:31;;;;;;;27.27;14.48;;;14.00;99.90;;;;;;4987046;28;20046;-66
2022/09/25 12:57:08;;;;;;;30.65;13.57;;;14.10;99.90;;;;;;4987401;28;20489;-65
2022/09/25 12:59:37;;;;;;;30.13;14.95;;;14.30;99.90;;;;;;4987802;28;20598;-65
2022/09/25 13:02:30;;;;;;;29.73;14.70;;;14.50;99.90;;;;;;4983424;28;20398;-64
2022/09/25 13:04:55;;;;;;;30.65;14.95;;;14.50;99.90;;;;;;4978148;28;20109;-65